createdAt,value
2023-02-20T00:02:15.408Z,48.59
2023-02-20T00:04:42.111Z,48.74
2023-02-20T00:07:08.819Z,50.34
2023-02-20T00:09:35.431Z,49.99
2023-02-20T00:12:02.071Z,49.92
2023-02-20T00:14:28.727Z,49.44
2023-02-20T00:16:55.376Z,49.54
2023-02-20T00:19:21.999Z,48.91
2023-02-20T00:21:48.668Z,48.54
2023-02-20T00:24:15.337Z,48.00
2023-02-20T00:26:41.994Z,47.93
2023-02-20T00:29:08.688Z,48.63
2023-02-20T00:31:35.386Z,48.49
2023-02-20T00:34:02.056Z,48.31
2023-02-20T00:36:28.737Z,48.64
2023-02-20T00:38:55.433Z,47.86
2023-02-20T00:41:22.144Z,48.14
2023-02-20T00:43:48.758Z,48.58
2023-02-20T00:46:15.983Z,48.37
2023-02-20T00:48:42.869Z,47.77
2023-02-20T00:51:09.528Z,47.71
2023-02-20T00:53:36.211Z,49.40
2023-02-20T00:56:02.909Z,48.98
2023-02-20T00:58:29.554Z,49.03
2023-02-20T01:00:56.233Z,48.71
2023-02-20T01:03:22.846Z,48.57
2023-02-20T01:05:49.641Z,47.48
2023-02-20T01:08:16.423Z,48.25
2023-02-20T01:10:43.128Z,49.61
2023-02-20T01:13:09.815Z,49.09
2023-02-20T01:15:36.527Z,49.54
2023-02-20T01:18:03.253Z,49.54
2023-02-20T01:20:29.917Z,48.78
2023-02-20T01:22:56.592Z,48.63
2023-02-20T01:25:23.265Z,48.72
2023-02-20T01:27:49.912Z,49.03
2023-02-20T01:30:16.559Z,48.76
2023-02-20T01:32:43.235Z,48.63
2023-02-20T01:35:09.954Z,49.33
2023-02-20T01:37:36.588Z,48.94
2023-02-20T01:40:03.296Z,49.51
2023-02-20T01:42:30.085Z,49.94
2023-02-20T01:44:57.041Z,50.18
2023-02-20T01:47:23.663Z,50.37
2023-02-20T01:49:50.327Z,50.46
2023-02-20T01:52:17.006Z,49.66
2023-02-20T01:54:43.634Z,49.17
2023-02-20T01:57:10.237Z,48.98
2023-02-20T01:59:36.916Z,49.01
2023-02-20T02:02:03.609Z,50.36
2023-02-20T02:04:30.283Z,49.73
2023-02-20T02:06:56.908Z,50.61
2023-02-20T02:09:23.567Z,51.40
2023-02-20T02:11:50.221Z,51.51
2023-02-20T02:14:16.885Z,51.88
2023-02-20T02:16:43.544Z,51.62
2023-02-20T02:19:10.172Z,52.76
2023-02-20T02:21:36.775Z,53.26
2023-02-20T02:24:03.421Z,53.84
2023-02-20T02:26:30.078Z,52.84
2023-02-20T02:28:56.754Z,52.49
2023-02-20T02:31:23.572Z,52.34
2023-02-20T02:33:50.296Z,51.76
2023-02-20T02:36:16.949Z,52.44
2023-02-20T02:38:43.622Z,53.46
2023-02-20T02:41:10.222Z,53.77
2023-02-20T02:43:36.854Z,53.34
2023-02-20T02:46:03.573Z,54.91
2023-02-20T02:48:30.282Z,53.49
2023-02-20T02:50:57.003Z,53.59
2023-02-20T02:53:23.659Z,53.03
2023-02-20T02:55:50.365Z,52.93
2023-02-20T02:58:17.148Z,51.88
2023-02-20T03:00:43.841Z,52.19
2023-02-20T03:03:10.560Z,52.93
2023-02-20T03:05:37.249Z,52.03
2023-02-20T03:08:03.892Z,52.78
2023-02-20T03:10:30.587Z,53.12
2023-02-20T03:12:57.204Z,53.45
2023-02-20T03:15:23.882Z,53.78
2023-02-20T03:17:50.493Z,53.97
2023-02-20T03:20:17.187Z,53.18
2023-02-20T03:22:43.826Z,52.76
2023-02-20T03:25:10.478Z,53.03
2023-02-20T03:27:37.137Z,53.43
2023-02-20T03:30:03.757Z,53.36
2023-02-20T03:32:30.397Z,53.77
2023-02-20T03:34:57.056Z,52.87
2023-02-20T03:37:23.692Z,52.58
2023-02-20T03:39:50.314Z,52.39
2023-02-20T03:42:16.987Z,53.07
2023-02-20T03:44:43.649Z,53.43
2023-02-20T03:47:10.312Z,53.31
2023-02-20T03:49:36.923Z,52.78
2023-02-20T03:52:03.557Z,52.61
2023-02-20T03:54:30.205Z,52.71
2023-02-20T03:56:56.815Z,52.70
2023-02-20T03:59:23.485Z,53.23
2023-02-20T04:01:50.179Z,53.01
2023-02-20T04:04:16.882Z,53.51
2023-02-20T04:06:43.506Z,53.34
2023-02-20T04:09:10.186Z,53.26
2023-02-20T04:11:36.849Z,53.55
2023-02-20T04:14:03.740Z,53.74
2023-02-20T04:16:30.403Z,52.89
2023-02-20T04:18:57.140Z,52.98
2023-02-20T04:21:23.794Z,53.38
2023-02-20T04:23:50.428Z,54.35
2023-02-20T04:26:17.072Z,53.79
2023-02-20T04:28:43.762Z,54.15
2023-02-20T04:31:10.496Z,53.68
2023-02-20T04:33:37.202Z,53.63
2023-02-20T04:36:03.824Z,53.97
2023-02-20T04:38:30.536Z,54.67
2023-02-20T04:40:57.134Z,54.33
2023-02-20T04:43:23.806Z,54.66
2023-02-20T04:45:50.566Z,54.38
2023-02-20T04:48:17.189Z,54.96
2023-02-20T04:50:43.867Z,54.58
2023-02-20T04:53:10.505Z,54.78
2023-02-20T04:55:37.185Z,54.90
2023-02-20T04:58:03.847Z,54.52
2023-02-20T05:00:30.496Z,54.85
2023-02-20T05:02:57.234Z,54.48
2023-02-20T05:05:23.931Z,56.03
2023-02-20T05:07:50.562Z,55.37
2023-02-20T05:10:17.199Z,55.53
2023-02-20T05:12:43.855Z,54.63
2023-02-20T05:15:10.507Z,54.99
2023-02-20T05:17:37.131Z,54.64
2023-02-20T05:20:03.758Z,54.57
2023-02-20T05:22:30.438Z,53.90
2023-02-20T05:24:57.050Z,54.78
2023-02-20T05:27:23.743Z,55.07
2023-02-20T05:29:50.385Z,55.30
2023-02-20T05:32:17.110Z,55.21
2023-02-20T05:34:43.780Z,55.60
2023-02-20T05:37:10.459Z,54.44
2023-02-20T05:39:37.075Z,55.05
2023-02-20T05:42:03.749Z,55.96
2023-02-20T05:44:30.375Z,55.93
2023-02-20T05:46:57.043Z,55.49
2023-02-20T05:49:23.698Z,56.60
2023-02-20T05:51:50.377Z,55.92
2023-02-20T05:54:17.081Z,55.94
2023-02-20T05:56:43.900Z,56.23
2023-02-20T05:59:10.559Z,56.10
2023-02-20T06:01:37.202Z,57.00
2023-02-20T06:04:03.925Z,56.45
2023-02-20T06:06:30.707Z,55.68
2023-02-20T06:08:57.407Z,55.60
2023-02-20T06:11:24.127Z,55.42
2023-02-20T06:13:50.800Z,55.50
2023-02-20T06:16:17.413Z,55.56
2023-02-20T06:18:44.041Z,55.77
2023-02-20T06:21:10.715Z,55.75
2023-02-20T06:23:37.386Z,55.02
2023-02-20T06:26:04.005Z,55.02
2023-02-20T06:28:30.629Z,54.39
2023-02-20T06:30:57.257Z,54.91
2023-02-20T06:33:23.904Z,54.98
2023-02-20T06:35:50.579Z,55.17
2023-02-20T06:38:17.217Z,55.23
2023-02-20T06:40:43.885Z,55.15
2023-02-20T06:43:10.555Z,55.10
2023-02-20T06:45:37.219Z,55.19
2023-02-20T06:48:03.872Z,55.46
2023-02-20T06:50:30.509Z,55.56
2023-02-20T06:52:57.191Z,56.12
2023-02-20T06:55:23.828Z,56.32
2023-02-20T06:57:50.461Z,55.93
2023-02-20T07:00:18.227Z,55.43
2023-02-20T07:02:44.893Z,55.48
2023-02-20T07:05:11.608Z,56.10
2023-02-20T07:07:38.244Z,55.65
2023-02-20T07:10:04.916Z,55.03
2023-02-20T07:12:32.359Z,54.91
2023-02-20T07:14:59.203Z,55.88
2023-02-20T07:17:25.934Z,55.64
2023-02-20T07:19:53.318Z,55.54
2023-02-20T07:22:19.923Z,55.93
2023-02-20T07:24:46.761Z,57.97
2023-02-20T07:27:13.433Z,56.65
2023-02-20T07:29:40.140Z,56.65
2023-02-20T07:32:06.783Z,56.29
2023-02-20T07:34:33.454Z,56.08
2023-02-20T07:37:00.111Z,56.26
2023-02-20T07:39:26.753Z,56.01
2023-02-20T07:41:53.453Z,55.79
2023-02-20T07:44:20.192Z,56.27
2023-02-20T07:46:46.866Z,56.62
2023-02-20T07:49:13.576Z,56.78
2023-02-20T07:51:40.209Z,57.12
2023-02-20T07:54:06.852Z,56.88
2023-02-20T07:56:33.552Z,56.47
2023-02-20T07:59:01.018Z,57.72
2023-02-20T08:01:27.807Z,57.42
2023-02-20T08:03:54.477Z,56.42
2023-02-20T08:06:21.097Z,56.81
2023-02-20T08:08:47.723Z,57.68
2023-02-20T08:11:14.351Z,56.68
2023-02-20T08:13:40.977Z,56.22
2023-02-20T08:16:07.701Z,55.57
2023-02-20T08:18:34.487Z,54.86
2023-02-20T08:21:01.662Z,53.98
2023-02-20T08:23:28.546Z,54.86
2023-02-20T08:25:55.323Z,54.77
2023-02-20T08:28:22.387Z,55.97
2023-02-20T08:30:49.640Z,55.75
2023-02-20T08:33:16.367Z,57.28
2023-02-20T08:35:43.371Z,57.50
2023-02-20T08:38:10.336Z,58.24
2023-02-20T08:40:37.182Z,58.73
2023-02-20T08:43:04.232Z,58.74
2023-02-20T08:45:31.110Z,58.74
2023-02-20T08:47:58.025Z,59.63
2023-02-20T08:50:24.873Z,58.70
2023-02-20T08:52:51.979Z,56.70
2023-02-20T08:55:19.263Z,57.23
2023-02-20T08:57:46.013Z,57.21
2023-02-20T09:00:13.021Z,56.93
2023-02-20T09:02:39.716Z,55.40
2023-02-20T09:05:06.449Z,53.75
2023-02-20T09:07:33.119Z,54.60
2023-02-20T09:09:59.739Z,53.85
2023-02-20T09:12:26.844Z,53.18
2023-02-20T09:14:53.580Z,53.79
2023-02-20T09:17:20.275Z,53.05
2023-02-20T09:19:46.980Z,52.38
2023-02-20T09:22:13.803Z,52.29
2023-02-20T09:24:40.481Z,52.70
2023-02-20T09:27:07.264Z,51.84
2023-02-20T09:29:33.972Z,50.36
2023-02-20T09:32:00.770Z,51.80
2023-02-20T09:34:27.957Z,50.94
2023-02-20T09:36:55.608Z,50.41
2023-02-20T09:39:22.684Z,50.76
2023-02-20T09:41:49.479Z,50.92
2023-02-20T09:44:16.148Z,50.65
2023-02-20T09:46:42.836Z,52.41
2023-02-20T09:49:09.941Z,51.90
2023-02-20T09:51:36.688Z,50.66
2023-02-20T09:54:03.399Z,49.09
2023-02-20T09:56:30.131Z,48.41
2023-02-20T09:58:56.890Z,48.15
2023-02-20T10:01:23.633Z,47.89
2023-02-20T10:03:50.353Z,48.39
2023-02-20T10:06:17.068Z,49.22
2023-02-20T10:08:43.965Z,48.03
2023-02-20T10:11:11.068Z,47.25
2023-02-20T10:13:37.748Z,47.03
2023-02-20T10:16:04.567Z,46.90
2023-02-20T10:18:31.298Z,46.07
2023-02-20T10:20:58.064Z,46.35
2023-02-20T10:23:24.739Z,46.69
2023-02-20T10:25:51.369Z,47.14
2023-02-20T10:28:18.069Z,46.85
2023-02-20T10:30:44.801Z,49.06
2023-02-20T10:33:11.534Z,47.12
2023-02-20T10:35:38.145Z,47.56
2023-02-20T10:38:04.798Z,47.96
2023-02-20T10:40:31.481Z,47.52
2023-02-20T10:42:58.168Z,49.65
2023-02-20T10:45:24.846Z,48.38
2023-02-20T10:47:51.498Z,46.95
2023-02-20T10:50:18.103Z,46.09
2023-02-20T10:52:44.815Z,44.61
2023-02-20T10:55:11.504Z,44.41
2023-02-20T10:57:38.169Z,44.22
2023-02-20T11:00:04.867Z,43.55
2023-02-20T11:02:31.496Z,47.00
2023-02-20T11:04:58.154Z,45.89
2023-02-20T11:07:24.788Z,47.43
2023-02-20T11:09:51.403Z,45.50
2023-02-20T11:12:18.030Z,44.62
2023-02-20T11:17:28.748Z,46.63
2023-02-20T11:19:55.495Z,45.89
2023-02-20T11:22:22.206Z,45.74
2023-02-20T11:24:48.868Z,43.10
2023-02-20T11:27:15.571Z,43.04
2023-02-20T11:29:42.262Z,42.43
2023-02-20T11:32:08.976Z,40.84
2023-02-20T11:34:35.604Z,39.80
2023-02-20T11:37:02.272Z,38.77
2023-02-20T11:39:28.944Z,39.74
2023-02-20T11:41:55.625Z,38.49
2023-02-20T11:44:22.285Z,38.29
2023-02-20T11:46:48.962Z,37.74
2023-02-20T11:49:15.605Z,37.75
2023-02-20T11:51:42.254Z,37.16
2023-02-20T11:54:08.956Z,37.43
2023-02-20T11:56:35.608Z,37.61
2023-02-20T11:59:02.226Z,37.73
2023-02-20T12:01:28.861Z,36.42
2023-02-20T12:03:55.543Z,35.32
2023-02-20T12:06:22.226Z,36.87
2023-02-20T12:08:48.913Z,37.44
2023-02-20T12:11:15.587Z,36.32
2023-02-20T12:13:42.249Z,34.70
2023-02-20T12:16:08.890Z,33.61
2023-02-20T12:18:37.553Z,33.92
2023-02-20T12:21:04.209Z,33.51
2023-02-20T12:23:30.818Z,32.52
2023-02-20T12:25:57.442Z,32.99
2023-02-20T12:28:24.109Z,33.88
2023-02-20T12:30:50.734Z,34.28
2023-02-20T12:33:17.408Z,34.48
2023-02-20T12:35:44.099Z,33.04
2023-02-20T12:38:10.816Z,34.14
2023-02-20T12:40:37.519Z,35.05
2023-02-20T12:43:04.156Z,33.20
2023-02-20T12:45:30.911Z,33.88
2023-02-20T12:47:57.509Z,33.79
2023-02-20T12:50:24.179Z,34.67
2023-02-20T12:52:50.815Z,35.14
2023-02-20T12:55:19.229Z,33.16
2023-02-20T12:57:46.034Z,33.29
2023-02-20T13:00:12.704Z,32.45
2023-02-20T13:02:42.668Z,31.79
2023-02-20T13:05:09.791Z,30.74
2023-02-20T13:07:36.491Z,32.16
2023-02-20T13:10:03.191Z,32.10
2023-02-20T13:12:29.850Z,32.03
2023-02-20T13:14:56.525Z,32.58
2023-02-20T13:17:23.183Z,32.90
2023-02-20T13:19:49.875Z,32.35
2023-02-20T13:22:16.497Z,33.52
2023-02-20T13:24:43.144Z,32.80
2023-02-20T13:27:09.804Z,33.13
2023-02-20T13:29:36.485Z,32.07
2023-02-20T13:32:03.305Z,33.46
2023-02-20T13:34:30.185Z,32.20
2023-02-20T13:36:56.842Z,33.05
2023-02-20T13:39:23.458Z,34.05
2023-02-20T13:41:50.189Z,33.76
2023-02-20T13:44:16.803Z,32.51
2023-02-20T13:46:43.399Z,31.80
2023-02-20T13:49:10.089Z,31.17
2023-02-20T13:51:36.777Z,30.77
2023-02-20T13:54:03.458Z,31.29
2023-02-20T13:56:30.086Z,30.62
2023-02-20T13:58:56.732Z,30.32
2023-02-20T14:01:23.414Z,30.84
2023-02-20T14:03:50.216Z,30.70
2023-02-20T14:06:16.893Z,32.55
2023-02-20T14:08:43.532Z,32.09
2023-02-20T14:11:10.192Z,32.34
2023-02-20T14:13:40.469Z,31.87
2023-02-20T14:16:07.849Z,31.51
2023-02-20T14:18:34.564Z,31.07
2023-02-20T14:21:01.297Z,31.57
2023-02-20T14:23:28.169Z,31.61
2023-02-20T14:26:00.210Z,31.96
2023-02-20T14:28:27.554Z,32.27
2023-02-20T14:30:54.243Z,32.50
2023-02-20T14:33:20.945Z,32.39
2023-02-20T14:35:47.643Z,32.34
2023-02-20T14:38:14.514Z,33.49
2023-02-20T14:40:41.157Z,32.99
2023-02-20T14:43:08.025Z,32.15
2023-02-20T14:45:34.760Z,32.50
2023-02-20T14:48:01.497Z,33.39
2023-02-20T14:50:28.504Z,32.95
2023-02-20T14:52:55.266Z,32.70
2023-02-20T14:55:21.909Z,32.82
2023-02-20T14:57:48.765Z,33.23
2023-02-20T15:00:15.466Z,32.97
2023-02-20T15:02:42.250Z,32.91
2023-02-20T15:05:08.932Z,33.06
2023-02-20T15:07:35.673Z,32.79
2023-02-20T15:10:02.357Z,33.33
2023-02-20T15:12:29.220Z,33.29
2023-02-20T15:14:55.856Z,33.70
2023-02-20T15:17:22.516Z,33.90
2023-02-20T15:19:49.225Z,33.56
2023-02-20T15:22:15.937Z,33.40
2023-02-20T15:24:42.673Z,33.73
2023-02-20T15:27:09.378Z,33.52
2023-02-20T15:29:36.090Z,34.06
2023-02-20T15:32:02.868Z,34.03
2023-02-20T15:34:29.538Z,34.60
2023-02-20T15:36:56.251Z,34.73
2023-02-20T15:39:22.959Z,35.11
2023-02-20T15:41:49.918Z,35.27
2023-02-20T15:44:16.582Z,35.39
2023-02-20T15:46:43.349Z,35.76
2023-02-20T15:49:19.308Z,36.24
2023-02-20T15:51:47.979Z,35.76
2023-02-20T15:54:14.663Z,36.06
2023-02-20T15:56:41.406Z,36.61
2023-02-20T15:59:08.245Z,37.29
2023-02-20T16:01:34.961Z,36.70
2023-02-20T16:04:01.649Z,36.59
2023-02-20T16:06:28.387Z,37.03
2023-02-20T16:08:55.104Z,37.25
2023-02-20T16:11:21.878Z,38.04
2023-02-20T16:13:48.542Z,38.32
2023-02-20T16:16:23.864Z,38.62
2023-02-20T16:18:51.826Z,39.40
2023-02-20T16:21:18.757Z,39.60
2023-02-20T16:23:45.448Z,39.57
2023-02-20T16:26:12.500Z,39.96
2023-02-20T16:28:39.367Z,39.99
2023-02-20T16:31:06.010Z,40.25
2023-02-20T16:33:32.791Z,40.29
2023-02-20T16:35:59.449Z,40.56
2023-02-20T16:38:26.988Z,40.41
2023-02-20T16:40:53.718Z,40.81
2023-02-20T16:43:20.361Z,40.68
2023-02-20T16:45:47.011Z,41.10
2023-02-20T16:48:13.661Z,41.55
2023-02-20T16:50:40.295Z,41.82
2023-02-20T16:53:06.925Z,41.67
2023-02-20T16:55:33.593Z,41.79
2023-02-20T16:58:00.400Z,42.10
2023-02-20T17:00:27.060Z,42.32
2023-02-20T17:02:53.728Z,42.88
2023-02-20T17:05:20.540Z,42.24
2023-02-20T17:07:47.232Z,42.77
2023-02-20T17:10:13.900Z,42.81
2023-02-20T17:12:40.514Z,43.08
2023-02-20T17:15:07.166Z,43.06
2023-02-20T17:17:33.765Z,43.48
2023-02-20T17:20:00.406Z,43.42
2023-02-20T17:22:27.071Z,43.50
2023-02-20T17:24:53.693Z,43.86
2023-02-20T17:27:20.365Z,44.32
2023-02-20T17:29:47.111Z,44.29
2023-02-20T17:32:13.815Z,45.21
2023-02-20T17:34:40.548Z,45.08
2023-02-20T17:37:07.171Z,44.79
2023-02-20T17:39:33.882Z,44.45
2023-02-20T17:42:00.539Z,44.90
2023-02-20T17:44:27.245Z,44.48
2023-02-20T17:46:53.950Z,44.85
2023-02-20T17:49:20.694Z,44.84
2023-02-20T17:51:47.377Z,44.72
2023-02-20T17:54:13.972Z,46.22
2023-02-20T17:56:40.647Z,45.66
2023-02-20T17:59:07.316Z,45.59
2023-02-20T18:01:34.036Z,45.73
2023-02-20T18:04:00.718Z,46.59
2023-02-20T18:06:27.374Z,46.87
2023-02-20T18:08:54.024Z,46.34
2023-02-20T18:11:20.666Z,47.41
2023-02-20T18:13:47.357Z,46.99
2023-02-20T18:16:14.512Z,46.60
2023-02-20T18:18:41.425Z,46.47
2023-02-20T18:21:08.131Z,48.32
2023-02-20T18:23:34.764Z,49.08
2023-02-20T18:26:01.421Z,48.28
2023-02-20T18:28:28.111Z,47.36
2023-02-20T18:30:54.759Z,48.19
2023-02-20T18:33:21.419Z,47.73
2023-02-20T18:35:55.505Z,47.29
2023-02-20T18:38:32.730Z,47.12
2023-02-20T18:40:59.421Z,47.60
2023-02-20T18:43:26.060Z,48.30
2023-02-20T18:45:52.914Z,47.97
2023-02-20T18:48:19.576Z,47.86
2023-02-20T18:50:47.337Z,47.68
2023-02-20T18:53:13.940Z,47.81
2023-02-20T18:55:40.626Z,47.94
2023-02-20T18:58:07.273Z,47.89
2023-02-20T19:00:34.010Z,48.56
2023-02-20T19:03:01.264Z,48.61
2023-02-20T19:05:27.964Z,48.78
2023-02-20T19:07:54.615Z,48.56
2023-02-20T19:10:21.265Z,48.53
2023-02-20T19:12:47.947Z,48.76
2023-02-20T19:15:14.598Z,48.88
2023-02-20T19:17:41.314Z,49.80
2023-02-20T19:20:07.942Z,49.54
2023-02-20T19:22:34.616Z,49.06
2023-02-20T19:25:01.326Z,48.83
2023-02-20T19:27:28.025Z,49.69
2023-02-20T19:29:54.859Z,49.67
2023-02-20T19:32:21.618Z,49.60
2023-02-20T19:34:48.604Z,49.92
2023-02-20T19:37:15.245Z,50.16
2023-02-20T19:39:41.973Z,50.92
2023-02-20T19:42:08.635Z,50.97
2023-02-20T19:44:35.308Z,50.04
2023-02-20T19:47:01.925Z,51.21
2023-02-20T19:49:28.576Z,50.91
2023-02-20T19:51:55.223Z,50.78
2023-02-20T19:54:21.834Z,51.20
2023-02-20T19:56:48.454Z,51.98
2023-02-20T19:59:15.118Z,51.77
2023-02-20T20:01:41.784Z,51.63
2023-02-20T20:04:08.416Z,51.69
2023-02-20T20:06:35.084Z,51.71
2023-02-20T20:09:13.527Z,52.50
2023-02-20T20:11:41.725Z,52.20
2023-02-20T20:14:08.365Z,51.81
2023-02-20T20:16:36.945Z,52.22
2023-02-20T20:19:03.653Z,51.52
2023-02-20T20:21:32.601Z,52.05
2023-02-20T20:23:59.276Z,51.92
2023-02-20T20:26:25.985Z,52.96
2023-02-20T20:28:52.688Z,52.19
2023-02-20T20:31:19.393Z,53.26
2023-02-20T20:33:46.079Z,52.44
2023-02-20T20:36:12.758Z,52.54
2023-02-20T20:38:39.391Z,52.59
2023-02-20T20:41:06.010Z,54.09
2023-02-20T20:43:32.639Z,54.62
2023-02-20T20:45:59.343Z,54.38
2023-02-20T20:48:25.953Z,53.81
2023-02-20T20:50:52.653Z,52.42
2023-02-20T20:53:19.280Z,52.13
2023-02-20T20:55:45.922Z,51.96
2023-02-20T20:58:12.524Z,52.29
2023-02-20T21:00:39.162Z,53.08
2023-02-20T21:03:05.868Z,51.86
2023-02-20T21:05:32.550Z,52.39
2023-02-20T21:07:59.143Z,52.41
2023-02-20T21:10:25.766Z,52.42
2023-02-20T21:12:52.467Z,52.72
2023-02-20T21:15:19.077Z,52.52
2023-02-20T21:17:45.738Z,51.82
2023-02-20T21:20:12.417Z,52.33
2023-02-20T21:22:39.058Z,53.06
2023-02-20T21:25:05.749Z,52.56
2023-02-20T21:27:32.484Z,52.19
2023-02-20T21:29:59.159Z,53.28
2023-02-20T21:32:25.847Z,53.75
2023-02-20T21:34:52.490Z,54.90
2023-02-20T21:37:19.110Z,55.07
2023-02-20T21:39:45.777Z,54.84
2023-02-20T21:42:12.442Z,55.62
2023-02-20T21:44:39.115Z,56.04
2023-02-20T21:47:05.784Z,56.65
2023-02-20T21:49:32.448Z,57.30
2023-02-20T21:51:59.106Z,56.27
2023-02-20T21:54:25.822Z,58.07
2023-02-20T21:56:52.441Z,58.52
2023-02-20T21:59:19.113Z,57.99
2023-02-20T22:01:45.737Z,57.79
2023-02-20T22:04:12.433Z,56.67
2023-02-20T22:06:39.132Z,56.14
2023-02-20T22:09:05.772Z,55.53
2023-02-20T22:11:32.400Z,56.06
2023-02-20T22:13:59.094Z,56.79
2023-02-20T22:16:25.787Z,56.40
2023-02-20T22:18:52.434Z,57.32
2023-02-20T22:21:19.097Z,56.49
2023-02-20T22:23:45.755Z,55.59
2023-02-20T22:26:12.394Z,57.62
2023-02-20T22:28:38.998Z,57.37
2023-02-20T22:31:05.788Z,56.43
2023-02-20T22:33:32.594Z,55.85
2023-02-20T22:35:59.265Z,55.53
2023-02-20T22:38:25.955Z,55.62
2023-02-20T22:40:52.655Z,56.17
2023-02-20T22:43:19.294Z,56.45
2023-02-20T22:45:45.950Z,56.48
2023-02-20T22:48:12.588Z,57.21
2023-02-20T22:50:39.259Z,58.01
2023-02-20T22:53:05.928Z,59.16
2023-02-20T22:55:32.615Z,58.30
2023-02-20T22:57:59.286Z,58.46
2023-02-20T23:00:26.059Z,57.85
2023-02-20T23:02:52.712Z,57.59
2023-02-20T23:05:19.354Z,58.50
2023-02-20T23:07:46.008Z,57.60
2023-02-20T23:10:12.660Z,56.88
2023-02-20T23:12:39.302Z,57.24
2023-02-20T23:15:05.975Z,56.86
2023-02-20T23:17:36.928Z,57.20
2023-02-20T23:20:04.235Z,57.85
2023-02-20T23:22:30.892Z,58.21
2023-02-20T23:24:57.587Z,58.09
2023-02-20T23:27:24.220Z,58.03
2023-02-20T23:29:50.852Z,57.86
2023-02-20T23:32:17.609Z,57.34
2023-02-20T23:34:44.357Z,58.02
2023-02-20T23:37:10.960Z,58.73
2023-02-20T23:39:37.631Z,59.13
2023-02-20T23:42:04.328Z,57.80
2023-02-20T23:44:30.989Z,56.84
2023-02-20T23:46:57.680Z,57.33
2023-02-20T23:49:24.321Z,57.67
2023-02-20T23:51:50.997Z,58.30
2023-02-20T23:54:17.596Z,57.34
2023-02-20T23:56:44.287Z,57.01
2023-02-20T23:59:10.893Z,57.43
